createdAt,value
2022-08-11T00:00:16.632Z,42.81
2022-08-11T00:01:16.619Z,42.41
2022-08-11T00:02:16.615Z,43.33
2022-08-11T00:03:16.647Z,42.93
2022-08-11T00:04:16.544Z,43.23
2022-08-11T00:05:16.550Z,43.13
2022-08-11T00:06:16.571Z,42.63
2022-08-11T00:07:16.511Z,42.54
2022-08-11T00:08:16.514Z,42.43
2022-08-11T00:09:16.544Z,42.93
2022-08-11T00:10:16.507Z,43.33
2022-08-11T00:11:16.457Z,43.13
2022-08-11T00:12:16.479Z,43.23
2022-08-11T00:13:17.011Z,42.93
2022-08-11T00:14:16.430Z,43.25
2022-08-11T00:15:16.404Z,43.45
2022-08-11T00:16:16.392Z,43.25
2022-08-11T00:17:16.439Z,43.95
2022-08-11T00:18:16.401Z,43.85
2022-08-11T00:19:16.345Z,43.45
2022-08-11T00:20:17.443Z,44.15
2022-08-11T00:21:16.345Z,43.45
2022-08-11T00:22:16.327Z,43.95
2022-08-11T00:23:18.279Z,43.75
2022-08-11T00:24:16.291Z,43.55
2022-08-11T00:25:16.345Z,44.25
2022-08-11T00:26:16.313Z,44.35
2022-08-11T00:27:16.426Z,43.65
2022-08-11T00:28:16.241Z,43.87
2022-08-11T00:29:16.244Z,44.78
2022-08-11T00:30:16.326Z,44.27
2022-08-11T00:31:16.216Z,43.87
2022-08-11T00:32:16.185Z,45.07
2022-08-11T00:33:16.177Z,44.27
2022-08-11T00:34:16.125Z,44.67
2022-08-11T00:35:52.087Z,44.47
2022-08-11T00:36:20.874Z,45.07
2022-08-11T00:37:17.228Z,44.47
2022-08-11T00:38:16.085Z,44.17
2022-08-11T00:39:16.259Z,43.98
2022-08-11T00:40:16.076Z,44.37
2022-08-11T00:41:16.099Z,44.78
2022-08-11T00:42:16.037Z,44.47
2022-08-11T00:43:19.952Z,45.50
2022-08-11T00:44:16.035Z,44.39
2022-08-11T00:45:16.029Z,44.79
2022-08-11T00:46:15.986Z,45.39
2022-08-11T00:47:16.005Z,45.20
2022-08-11T00:48:15.946Z,44.79
2022-08-11T00:49:15.927Z,44.89
2022-08-11T00:50:16.396Z,45.00
2022-08-11T00:51:16.007Z,45.29
2022-08-11T00:52:15.883Z,44.89
2022-08-11T00:53:15.900Z,45.29
2022-08-11T00:54:15.951Z,44.89
2022-08-11T00:55:15.897Z,44.89
2022-08-11T00:56:15.899Z,45.29
2022-08-11T00:57:37.573Z,45.50
2022-08-11T00:58:21.821Z,45.09
2022-08-11T00:59:34.579Z,45.09
2022-08-11T01:00:16.879Z,45.20
2022-08-11T01:01:15.977Z,45.50
2022-08-11T01:02:15.861Z,45.39
2022-08-11T01:03:15.797Z,45.42
2022-08-11T01:04:15.827Z,45.21
2022-08-11T01:05:15.797Z,45.72
2022-08-11T01:06:15.688Z,45.51
2022-08-11T01:07:15.677Z,46.81
2022-08-11T01:08:16.724Z,47.61
2022-08-11T01:09:22.103Z,48.04
2022-08-11T01:10:16.697Z,48.14
2022-08-11T01:11:15.618Z,48.84
2022-08-11T01:12:15.642Z,48.96
2022-08-11T01:13:15.614Z,49.16
2022-08-11T01:14:15.581Z,48.76
2022-08-11T01:15:15.608Z,49.76
2022-08-11T01:16:15.596Z,47.86
2022-08-11T01:17:15.538Z,47.06
2022-08-11T01:18:15.547Z,47.04
2022-08-11T01:19:15.568Z,46.44
2022-08-11T01:20:48.023Z,46.84
2022-08-11T01:21:16.508Z,46.84
2022-08-11T01:22:15.480Z,46.74
2022-08-11T01:23:17.453Z,46.84
2022-08-11T01:24:15.489Z,46.44
2022-08-11T01:25:15.458Z,46.74
2022-08-11T01:26:15.483Z,46.64
2022-08-11T01:27:19.174Z,46.54
2022-08-11T01:28:15.393Z,47.74
2022-08-11T01:29:15.437Z,47.16
2022-08-11T01:30:15.476Z,48.26
2022-08-11T01:31:15.444Z,47.56
2022-08-11T01:32:15.381Z,47.56
2022-08-11T01:33:15.368Z,47.26
2022-08-11T01:34:15.339Z,47.56
2022-08-11T01:35:15.362Z,47.66
2022-08-11T01:36:15.361Z,48.16
2022-08-11T01:37:15.263Z,47.86
2022-08-11T01:38:15.291Z,47.56
2022-08-11T01:39:18.253Z,47.66
2022-08-11T01:40:15.270Z,47.66
2022-08-11T01:41:15.249Z,48.26
2022-08-11T01:42:15.283Z,47.66
2022-08-11T01:43:15.230Z,47.76
2022-08-11T01:44:15.213Z,48.07
2022-08-11T01:45:15.162Z,48.07
2022-08-11T01:46:15.329Z,47.86
2022-08-11T01:47:15.227Z,47.56
2022-08-11T01:48:15.170Z,48.26
2022-08-11T01:50:05.837Z,47.66
2022-08-11T01:50:16.133Z,48.46
2022-08-11T01:51:17.146Z,47.86
2022-08-11T01:52:15.181Z,47.76
2022-08-11T01:53:15.075Z,47.66
2022-08-11T01:54:15.080Z,47.66
2022-08-11T01:55:15.085Z,47.66
2022-08-11T01:56:15.031Z,47.36
2022-08-11T01:57:15.060Z,47.56
2022-08-11T01:58:15.024Z,47.36
2022-08-11T01:59:15.048Z,47.56
2022-08-11T02:00:14.964Z,47.36
2022-08-11T02:01:15.037Z,47.46
2022-08-11T02:02:21.447Z,48.26
2022-08-11T02:03:15.930Z,47.26
2022-08-11T02:04:14.924Z,47.26
2022-08-11T02:05:14.964Z,47.16
2022-08-11T02:06:14.901Z,47.46
2022-08-11T02:07:14.875Z,47.56
2022-08-11T02:08:14.910Z,47.46
2022-08-11T02:09:17.165Z,47.36
2022-08-11T02:10:14.895Z,47.36
2022-08-11T02:11:14.881Z,47.66
2022-08-11T02:12:14.804Z,47.46
2022-08-11T02:13:14.823Z,47.66
2022-08-11T02:14:14.892Z,47.46
2022-08-11T02:15:14.797Z,48.26
2022-08-11T02:16:14.767Z,47.66
2022-08-11T02:17:14.786Z,48.07
2022-08-11T02:18:14.764Z,47.96
2022-08-11T02:19:14.704Z,48.46
2022-08-11T02:20:14.703Z,48.38
2022-08-11T02:21:14.774Z,47.88
2022-08-11T02:22:14.763Z,48.38
2022-08-11T02:23:14.685Z,48.58
2022-08-11T02:24:15.683Z,48.69
2022-08-11T02:25:17.110Z,48.69
2022-08-11T02:26:14.630Z,48.58
2022-08-11T02:27:14.623Z,48.28
2022-08-11T02:28:14.696Z,48.28
2022-08-11T02:29:14.664Z,48.49
2022-08-11T02:30:14.574Z,48.58
2022-08-11T02:31:22.539Z,48.69
2022-08-11T02:32:28.606Z,48.89
2022-08-11T02:33:15.514Z,48.79
2022-08-11T02:34:14.521Z,48.58
2022-08-11T02:35:14.525Z,50.19
2022-08-11T02:36:14.494Z,51.09
2022-08-11T02:37:14.523Z,50.62
2022-08-11T02:38:15.490Z,50.42
2022-08-11T02:39:14.506Z,50.63
2022-08-11T02:40:14.437Z,51.34
2022-08-11T02:41:14.444Z,51.46
2022-08-11T02:42:32.929Z,52.37
2022-08-11T02:43:15.413Z,52.17
2022-08-11T02:44:14.425Z,52.19
2022-08-11T02:45:14.370Z,52.59
2022-08-11T02:46:18.123Z,52.69
2022-08-11T02:47:14.435Z,52.80
2022-08-11T02:48:14.354Z,52.92
2022-08-11T02:49:14.367Z,53.12
2022-08-11T02:50:14.284Z,53.42
2022-08-11T02:51:14.282Z,53.42
2022-08-11T02:52:15.305Z,53.62
2022-08-11T02:53:14.267Z,53.62
2022-08-11T02:54:14.244Z,53.72
2022-08-11T02:55:50.972Z,53.75
2022-08-11T02:56:15.223Z,54.05
2022-08-11T02:57:14.237Z,54.05
2022-08-11T02:58:14.318Z,54.25
2022-08-11T02:59:14.185Z,53.95
2022-08-11T03:00:14.156Z,53.95
2022-08-11T03:01:14.258Z,54.15
2022-08-11T03:02:14.167Z,54.25
2022-08-11T03:03:14.117Z,54.45
2022-08-11T03:04:14.115Z,54.65
2022-08-11T03:05:14.085Z,54.45
2022-08-11T03:06:14.099Z,54.45
2022-08-11T03:07:28.912Z,54.45
2022-08-11T03:08:15.056Z,54.78
2022-08-11T03:09:14.036Z,54.88
2022-08-11T03:10:14.053Z,54.68
2022-08-11T03:11:14.074Z,54.68
2022-08-11T03:12:13.984Z,54.88
2022-08-11T03:13:15.525Z,54.98
2022-08-11T03:14:14.018Z,55.08
2022-08-11T03:15:13.957Z,54.88
2022-08-11T03:16:13.946Z,55.18
2022-08-11T03:17:13.925Z,54.88
2022-08-11T03:18:13.896Z,55.08
2022-08-11T03:19:13.897Z,55.38
2022-08-11T03:20:13.876Z,55.38
2022-08-11T03:21:13.906Z,55.68
2022-08-11T03:22:14.457Z,55.81
2022-08-11T03:23:19.433Z,55.91
2022-08-11T03:24:14.843Z,56.21
2022-08-11T03:25:13.828Z,56.11
2022-08-11T03:26:13.846Z,55.91
2022-08-11T03:27:13.808Z,56.11
2022-08-11T03:28:13.844Z,56.11
2022-08-11T03:29:18.197Z,56.51
2022-08-11T03:30:13.747Z,56.41
2022-08-11T03:31:13.762Z,56.51
2022-08-11T03:32:13.753Z,56.92
2022-08-11T03:33:13.678Z,57.12
2022-08-11T03:34:13.685Z,56.71
2022-08-11T03:35:20.055Z,56.92
2022-08-11T03:36:14.659Z,56.71
2022-08-11T03:37:16.571Z,57.02
2022-08-11T03:38:13.667Z,57.42
2022-08-11T03:39:13.594Z,57.02
2022-08-11T03:40:13.622Z,57.02
2022-08-11T03:41:49.369Z,57.12
2022-08-11T03:42:14.555Z,57.32
2022-08-11T03:43:13.546Z,57.32
2022-08-11T03:44:13.550Z,57.42
2022-08-11T03:45:13.578Z,57.32
2022-08-11T03:46:13.519Z,57.32
2022-08-11T03:47:13.481Z,57.42
2022-08-11T03:48:13.517Z,56.82
2022-08-11T03:49:13.481Z,57.42
2022-08-11T03:50:13.484Z,57.72
2022-08-11T03:51:13.447Z,56.64
2022-08-11T03:52:13.428Z,56.84
2022-08-11T03:53:13.491Z,56.74
2022-08-11T03:54:13.417Z,56.92
2022-08-11T03:55:13.395Z,56.41
2022-08-11T03:56:13.359Z,56.51
2022-08-11T03:57:13.338Z,56.44
2022-08-11T03:58:13.388Z,56.44
2022-08-11T03:59:13.342Z,56.34
2022-08-11T04:00:13.324Z,56.44
2022-08-11T04:01:13.315Z,56.01
2022-08-11T04:02:13.288Z,56.62
2022-08-11T04:03:13.248Z,56.44
2022-08-11T04:04:13.300Z,56.64
2022-08-11T04:05:13.272Z,56.74
2022-08-11T04:06:13.260Z,56.34
2022-08-11T04:07:17.516Z,55.94
2022-08-11T04:08:13.240Z,55.83
2022-08-11T04:09:13.407Z,55.94
2022-08-11T04:10:13.305Z,55.83
2022-08-11T04:11:13.188Z,56.04
2022-08-11T04:12:14.760Z,55.83
2022-08-11T04:13:14.211Z,55.94
2022-08-11T04:14:13.136Z,56.04
2022-08-11T04:15:13.118Z,56.04
2022-08-11T04:16:13.091Z,55.83
2022-08-11T04:17:13.099Z,55.74
2022-08-11T04:18:13.080Z,56.14
2022-08-11T04:19:13.066Z,56.04
2022-08-11T04:20:13.038Z,56.04
2022-08-11T04:21:13.049Z,56.74
2022-08-11T04:22:13.016Z,57.35
2022-08-11T04:23:12.979Z,57.15
2022-08-11T04:24:38.120Z,57.45
2022-08-11T04:25:13.962Z,57.24
2022-08-11T04:26:16.092Z,56.64
2022-08-11T04:27:14.342Z,56.74
2022-08-11T04:28:28.482Z,57.04
2022-08-11T04:29:13.921Z,57.35
2022-08-11T04:30:12.899Z,57.24
2022-08-11T04:31:12.864Z,57.55
2022-08-11T04:32:13.901Z,57.85
2022-08-11T04:33:12.896Z,57.45
2022-08-11T04:34:12.849Z,57.65
2022-08-11T04:35:12.814Z,57.15
2022-08-11T04:36:12.810Z,57.75
2022-08-11T04:37:12.806Z,57.04
2022-08-11T04:38:12.805Z,56.84
2022-08-11T04:39:12.839Z,56.41
2022-08-11T04:40:12.749Z,55.18
2022-08-11T04:41:12.823Z,53.92
2022-08-11T04:42:12.739Z,53.70
2022-08-11T04:43:12.721Z,53.25
2022-08-11T04:44:12.700Z,52.62
2022-08-11T04:45:12.691Z,51.92
2022-08-11T04:46:12.687Z,51.92
2022-08-11T04:47:12.702Z,52.22
2022-08-11T04:48:12.660Z,52.62
2022-08-11T04:49:12.650Z,51.77
2022-08-11T04:50:13.624Z,51.44
2022-08-11T04:51:17.499Z,50.32
2022-08-11T04:52:13.574Z,49.90
2022-08-11T04:53:12.561Z,49.55
2022-08-11T04:54:12.611Z,48.93
2022-08-11T04:55:12.613Z,47.20
2022-08-11T04:56:12.530Z,46.88
2022-08-11T04:57:12.552Z,46.86
2022-08-11T04:58:12.558Z,46.46
2022-08-11T04:59:12.525Z,45.76
2022-08-11T05:00:12.470Z,45.04
2022-08-11T05:01:12.567Z,45.84
2022-08-11T05:02:17.047Z,45.94
2022-08-11T05:03:13.459Z,44.94
2022-08-11T05:04:12.423Z,45.02
2022-08-11T05:05:12.433Z,44.94
2022-08-11T05:06:12.453Z,45.62
2022-08-11T05:07:12.401Z,45.20
2022-08-11T05:08:12.388Z,44.38
2022-08-11T05:09:12.355Z,44.36
2022-08-11T05:10:12.381Z,43.64
2022-08-11T05:11:12.353Z,43.35
2022-08-11T05:12:12.316Z,42.83
2022-08-11T05:13:12.304Z,42.80
2022-08-11T05:14:12.282Z,42.61
2022-08-11T05:15:12.275Z,42.29
2022-08-11T05:16:12.259Z,41.99
2022-08-11T05:17:12.273Z,41.67
2022-08-11T05:18:12.234Z,41.58
2022-08-11T05:19:12.306Z,41.75
2022-08-11T05:20:12.214Z,41.97
2022-08-11T05:21:12.235Z,41.38
2022-08-11T05:22:12.651Z,41.26
2022-08-11T05:23:12.224Z,41.16
2022-08-11T05:24:12.168Z,40.55
2022-08-11T05:25:12.239Z,40.55
2022-08-11T05:26:48.055Z,40.23
2022-08-11T05:27:14.072Z,39.83
2022-08-11T05:28:12.122Z,39.43
2022-08-11T05:29:20.646Z,39.73
2022-08-11T05:30:13.087Z,39.61
2022-08-11T05:31:12.111Z,39.59
2022-08-11T05:32:12.057Z,38.51
2022-08-11T05:33:12.066Z,38.72
2022-08-11T05:34:12.152Z,39.22
2022-08-11T05:35:15.836Z,39.42
2022-08-11T05:36:13.008Z,39.69
2022-08-11T05:37:26.120Z,38.88
2022-08-11T05:38:12.979Z,38.57
2022-08-11T05:39:11.995Z,38.06
2022-08-11T05:40:12.006Z,37.84
2022-08-11T05:41:11.948Z,37.84
2022-08-11T05:42:11.946Z,37.23
2022-08-11T05:43:12.916Z,37.03
2022-08-11T05:44:19.817Z,36.61
2022-08-11T05:45:15.465Z,35.91
2022-08-11T05:46:13.294Z,35.69
2022-08-11T05:47:11.855Z,36.09
2022-08-11T05:48:11.880Z,34.89
2022-08-11T05:49:11.829Z,35.00
2022-08-11T05:50:13.780Z,35.45
2022-08-11T05:51:11.975Z,36.71
2022-08-11T05:52:12.853Z,38.96
2022-08-11T05:53:24.041Z,39.29
2022-08-11T05:54:29.244Z,40.48
2022-08-11T05:55:12.838Z,40.41
2022-08-11T05:56:11.752Z,41.06
2022-08-11T05:57:49.044Z,41.79
2022-08-11T05:58:12.740Z,42.39
2022-08-11T05:59:12.083Z,42.49
2022-08-11T06:00:11.814Z,42.59
2022-08-11T06:01:11.886Z,42.19
2022-08-11T06:02:11.673Z,42.39
2022-08-11T06:03:11.687Z,42.49
2022-08-11T06:04:11.676Z,42.79
2022-08-11T06:05:11.819Z,42.47
2022-08-11T06:06:11.625Z,42.37
2022-08-11T06:07:11.613Z,42.17
2022-08-11T06:08:11.614Z,42.17
2022-08-11T06:09:11.632Z,42.27
2022-08-11T06:10:11.581Z,42.15
2022-08-11T06:11:11.584Z,40.82
2022-08-11T06:12:11.574Z,41.46
2022-08-11T06:13:11.544Z,41.95
2022-08-11T06:14:11.527Z,41.75
2022-08-11T06:15:11.561Z,41.82
2022-08-11T06:16:11.536Z,41.53
2022-08-11T06:17:11.529Z,41.91
2022-08-11T06:18:11.476Z,41.30
2022-08-11T06:19:11.529Z,41.09
2022-08-11T06:20:11.556Z,40.60
2022-08-11T06:21:11.525Z,40.07
2022-08-11T06:22:11.451Z,39.04
2022-08-11T06:23:11.443Z,38.53
2022-08-11T06:24:11.478Z,38.74
2022-08-11T06:25:11.423Z,38.62
2022-08-11T06:26:11.512Z,38.40
2022-08-11T06:27:13.146Z,38.42
2022-08-11T06:28:11.383Z,38.72
2022-08-11T06:29:11.402Z,38.82
2022-08-11T06:30:11.539Z,38.39
2022-08-11T06:31:11.364Z,38.06
2022-08-11T06:32:11.387Z,36.65
2022-08-11T06:33:11.311Z,36.12
2022-08-11T06:34:11.295Z,36.02
2022-08-11T06:35:11.312Z,36.61
2022-08-11T06:36:11.309Z,36.60
2022-08-11T06:37:11.297Z,35.71
2022-08-11T06:38:11.254Z,35.83
2022-08-11T06:39:11.347Z,36.77
2022-08-11T06:40:11.229Z,37.79
2022-08-11T06:41:11.227Z,38.39
2022-08-11T06:42:11.282Z,37.68
2022-08-11T06:43:11.204Z,37.16
2022-08-11T06:44:11.204Z,37.36
2022-08-11T06:45:11.195Z,37.94
2022-08-11T06:46:11.230Z,37.11
2022-08-11T06:47:12.192Z,36.38
2022-08-11T06:48:11.170Z,35.20
2022-08-11T06:49:11.191Z,35.93
2022-08-11T06:50:11.184Z,38.35
2022-08-11T06:51:11.114Z,38.94
2022-08-11T06:52:34.137Z,41.08
2022-08-11T06:53:12.177Z,42.33
2022-08-11T06:54:11.091Z,42.75
2022-08-11T06:55:55.458Z,43.88
2022-08-11T06:56:12.052Z,44.40
2022-08-11T06:57:29.796Z,44.80
2022-08-11T06:58:12.143Z,45.10
2022-08-11T06:59:11.086Z,44.72
2022-08-11T07:00:10.991Z,46.44
2022-08-11T07:01:11.041Z,46.73
2022-08-11T07:02:10.983Z,46.94
2022-08-11T07:03:10.993Z,47.03
2022-08-11T07:04:11.009Z,45.92
2022-08-11T07:05:10.932Z,45.72
2022-08-11T07:06:10.919Z,46.12
2022-08-11T07:07:10.886Z,46.89
2022-08-11T07:08:33.713Z,45.70
2022-08-11T07:09:11.907Z,45.12
2022-08-11T07:10:10.873Z,45.62
2022-08-11T07:11:10.890Z,45.40
2022-08-11T07:12:10.834Z,45.30
2022-08-11T07:13:10.831Z,45.72
2022-08-11T07:14:11.929Z,46.34
2022-08-11T07:15:10.814Z,45.94
2022-08-11T07:16:14.061Z,46.04
2022-08-11T07:17:10.786Z,46.34
2022-08-11T07:18:10.753Z,46.26
2022-08-11T07:19:10.760Z,46.56
2022-08-11T07:20:11.740Z,46.96
2022-08-11T07:22:00.378Z,46.56
2022-08-11T07:22:11.791Z,46.36
2022-08-11T07:23:10.794Z,46.34
2022-08-11T07:24:10.690Z,46.84
2022-08-11T07:25:10.676Z,46.04
2022-08-11T07:26:10.707Z,45.94
2022-08-11T07:27:10.661Z,46.54
2022-08-11T07:28:10.623Z,46.44
2022-08-11T07:29:10.596Z,46.72
2022-08-11T07:30:10.599Z,46.22
2022-08-11T07:31:10.620Z,46.30
2022-08-11T07:32:10.564Z,45.72
2022-08-11T07:33:10.573Z,46.12
2022-08-11T07:34:15.928Z,46.22
2022-08-11T07:35:11.576Z,46.01
2022-08-11T07:36:10.555Z,47.11
2022-08-11T07:37:10.508Z,46.22
2022-08-11T07:38:10.466Z,45.90
2022-08-11T07:39:10.595Z,46.99
2022-08-11T07:40:10.498Z,45.48
2022-08-11T07:41:10.599Z,45.67
2022-08-11T07:42:10.451Z,45.37
2022-08-11T07:43:10.447Z,45.67
2022-08-11T07:44:10.420Z,45.37
2022-08-11T07:45:10.428Z,44.88
2022-08-11T07:46:10.408Z,45.08
2022-08-11T07:47:10.424Z,45.18
2022-08-11T07:48:10.440Z,44.78
2022-08-11T07:49:10.359Z,45.08
2022-08-11T07:50:10.345Z,45.18
2022-08-11T07:51:10.400Z,44.76
2022-08-11T07:52:10.278Z,45.45
2022-08-11T07:53:10.338Z,44.96
2022-08-11T07:54:16.937Z,45.14
2022-08-11T07:55:11.260Z,44.93
2022-08-11T07:56:10.246Z,44.54
2022-08-11T07:57:45.047Z,44.74
2022-08-11T07:58:16.250Z,43.94
2022-08-11T07:59:11.237Z,44.44
2022-08-11T08:00:10.341Z,44.93
2022-08-11T08:01:16.086Z,44.24
2022-08-11T08:02:11.219Z,43.72
2022-08-11T08:03:10.183Z,43.64
2022-08-11T08:04:10.196Z,43.44
2022-08-11T08:05:10.118Z,43.94
2022-08-11T08:06:22.219Z,43.62
2022-08-11T08:07:11.119Z,43.42
2022-08-11T08:08:10.070Z,43.23
2022-08-11T08:09:10.190Z,43.13
2022-08-11T08:10:10.051Z,43.62
2022-08-11T08:11:10.046Z,43.20
2022-08-11T08:12:10.021Z,43.02
2022-08-11T08:13:10.059Z,43.42
2022-08-11T08:14:09.993Z,43.42
2022-08-11T08:15:10.056Z,43.52
2022-08-11T08:16:09.991Z,43.30
2022-08-11T08:17:09.992Z,42.91
2022-08-11T08:18:26.259Z,43.23
2022-08-11T08:19:10.982Z,42.31
2022-08-11T08:20:09.943Z,42.41
2022-08-11T08:21:09.959Z,42.11
2022-08-11T08:22:37.433Z,42.09
2022-08-11T08:23:10.898Z,41.77
2022-08-11T08:24:09.878Z,41.87
2022-08-11T08:25:09.846Z,41.20
2022-08-11T08:26:13.599Z,41.71
2022-08-11T08:27:10.907Z,41.89
2022-08-11T08:28:09.896Z,41.79
2022-08-11T08:29:09.792Z,41.89
2022-08-11T08:30:09.773Z,41.60
2022-08-11T08:31:09.786Z,41.89
2022-08-11T08:32:09.819Z,42.19
2022-08-11T08:33:09.753Z,41.79
2022-08-11T08:34:09.742Z,41.58
2022-08-11T08:35:09.736Z,41.20
2022-08-11T08:36:09.710Z,41.69
2022-08-11T08:37:15.766Z,41.60
2022-08-11T08:38:10.672Z,42.29
2022-08-11T08:39:09.876Z,41.69
2022-08-11T08:40:09.747Z,42.17
2022-08-11T08:41:09.644Z,41.17
2022-08-11T08:42:10.669Z,41.08
2022-08-11T08:43:09.617Z,41.38
2022-08-11T08:44:35.194Z,41.87
2022-08-11T08:45:10.648Z,41.58
2022-08-11T08:46:09.566Z,40.76
2022-08-11T08:47:09.566Z,40.88
2022-08-11T08:48:09.559Z,41.16
2022-08-11T08:49:09.574Z,40.76
2022-08-11T08:50:09.499Z,40.94
2022-08-11T08:51:11.024Z,39.95
2022-08-11T08:52:26.285Z,39.85
2022-08-11T08:53:10.528Z,40.05
2022-08-11T08:54:09.470Z,39.55
2022-08-11T08:55:09.473Z,40.44
2022-08-11T08:56:09.508Z,39.73
2022-08-11T08:57:09.558Z,39.73
2022-08-11T08:58:09.452Z,39.25
2022-08-11T08:59:09.460Z,39.65
2022-08-11T09:00:12.449Z,40.15
2022-08-11T09:01:10.491Z,38.96
2022-08-11T09:02:09.358Z,39.55
2022-08-11T09:03:36.452Z,39.36
2022-08-11T09:04:12.368Z,39.57
2022-08-11T09:05:09.324Z,39.17
2022-08-11T09:06:09.321Z,39.36
2022-08-11T09:07:09.280Z,39.06
2022-08-11T09:08:09.313Z,38.34
2022-08-11T09:09:09.256Z,39.04
2022-08-11T09:10:09.347Z,37.55
2022-08-11T09:11:13.450Z,37.75
2022-08-11T09:12:09.221Z,38.15
2022-08-11T09:13:09.338Z,38.15
2022-08-11T09:14:12.981Z,38.17
2022-08-11T09:15:10.596Z,38.44
2022-08-11T09:16:09.215Z,37.65
2022-08-11T09:17:09.161Z,37.85
2022-08-11T09:18:09.156Z,38.74
2022-08-11T09:19:09.799Z,38.94
2022-08-11T09:20:09.255Z,37.63
2022-08-11T09:21:09.099Z,38.53
2022-08-11T09:22:09.107Z,38.13
2022-08-11T09:24:19.141Z,37.02
2022-08-11T09:25:10.044Z,36.82
2022-08-11T09:26:09.066Z,36.43
2022-08-11T09:27:09.071Z,36.52
2022-08-11T09:28:09.096Z,36.13
2022-08-11T09:29:08.982Z,35.32
2022-08-11T09:30:09.008Z,35.02
2022-08-11T09:31:08.991Z,35.32
2022-08-11T09:32:08.998Z,35.80
2022-08-11T09:33:08.923Z,35.21
2022-08-11T09:34:08.913Z,35.72
2022-08-11T09:35:08.919Z,35.11
2022-08-11T09:36:08.963Z,35.30
2022-08-11T09:37:08.882Z,35.12
2022-08-11T09:38:08.864Z,35.21
2022-08-11T09:39:08.940Z,35.50
2022-08-11T09:40:08.861Z,34.79
2022-08-11T09:41:08.835Z,33.90
2022-08-11T09:42:11.339Z,34.01
2022-08-11T09:43:09.802Z,33.92
2022-08-11T09:44:08.783Z,35.00
2022-08-11T09:45:08.763Z,34.43
2022-08-11T09:46:08.762Z,34.41
2022-08-11T09:47:08.725Z,33.72
2022-08-11T09:48:08.715Z,33.92
2022-08-11T09:49:08.698Z,33.92
2022-08-11T09:50:08.693Z,33.92
2022-08-11T09:51:08.723Z,34.12
2022-08-11T09:52:08.709Z,34.00
2022-08-11T09:53:35.754Z,33.70
2022-08-11T09:54:09.705Z,33.61
2022-08-11T09:55:08.626Z,33.00
2022-08-11T09:56:08.650Z,33.31
2022-08-11T09:57:08.592Z,33.11
2022-08-11T09:58:08.605Z,32.93
2022-08-11T09:59:08.566Z,32.73
2022-08-11T10:00:11.423Z,32.53
2022-08-11T10:01:08.598Z,32.73
2022-08-11T10:02:08.683Z,32.83
2022-08-11T10:03:08.539Z,32.42
2022-08-11T10:04:08.501Z,33.01
2022-08-11T10:05:08.486Z,31.81
2022-08-11T10:06:08.522Z,32.01
2022-08-11T10:07:08.488Z,31.23
2022-08-11T10:08:08.533Z,31.32
2022-08-11T10:09:08.438Z,31.04
2022-08-11T10:10:08.436Z,31.23
2022-08-11T10:11:08.418Z,31.62
2022-08-11T10:12:08.414Z,32.21
2022-08-11T10:14:10.085Z,30.82
2022-08-11T10:14:33.922Z,31.12
2022-08-11T10:15:09.351Z,31.02
2022-08-11T10:16:15.305Z,31.32
2022-08-11T10:17:09.459Z,31.90
2022-08-11T10:18:08.330Z,30.73
2022-08-11T10:19:08.317Z,31.02
2022-08-11T10:20:08.292Z,30.63
2022-08-11T10:21:08.335Z,31.02
2022-08-11T10:22:08.277Z,30.91
2022-08-11T10:23:08.285Z,30.51
2022-08-11T10:24:08.246Z,30.43
2022-08-11T10:25:08.224Z,30.33
2022-08-11T10:26:08.253Z,30.83
2022-08-11T10:27:08.321Z,31.32
2022-08-11T10:28:32.776Z,30.43
2022-08-11T10:29:13.572Z,30.91
2022-08-11T10:30:08.159Z,30.02
2022-08-11T10:31:12.658Z,30.32
2022-08-11T10:32:09.147Z,29.92
2022-08-11T10:33:08.898Z,29.52
2022-08-11T10:34:08.135Z,29.61
2022-08-11T10:35:08.146Z,29.13
2022-08-11T10:36:16.070Z,29.82
2022-08-11T10:37:09.056Z,30.71
2022-08-11T10:38:10.085Z,29.80
2022-08-11T10:39:08.118Z,29.41
2022-08-11T10:40:08.030Z,29.52
2022-08-11T10:41:08.091Z,29.43
2022-08-11T10:42:10.798Z,29.03
2022-08-11T10:43:09.010Z,28.44
2022-08-11T10:44:07.979Z,27.94
2022-08-11T10:45:08.280Z,28.25
2022-08-11T10:46:07.980Z,29.21
2022-08-11T10:47:07.998Z,28.52
2022-08-11T10:48:10.937Z,29.32
2022-08-11T10:49:08.891Z,28.72
2022-08-11T10:50:07.940Z,28.94
2022-08-11T10:51:07.880Z,29.93
2022-08-11T10:52:07.925Z,29.64
2022-08-11T10:53:07.952Z,29.44
2022-08-11T10:54:11.476Z,29.64
2022-08-11T10:55:08.833Z,29.93
2022-08-11T10:56:07.864Z,29.82
2022-08-11T10:57:08.042Z,29.74
2022-08-11T10:58:07.812Z,29.82
2022-08-11T10:59:07.865Z,29.82
2022-08-11T11:00:07.850Z,29.74
2022-08-11T11:01:07.811Z,29.14
2022-08-11T11:02:07.824Z,29.03
2022-08-11T11:03:22.399Z,29.02
2022-08-11T11:04:08.792Z,28.82
2022-08-11T11:05:07.767Z,29.03
2022-08-11T11:06:27.423Z,28.93
2022-08-11T11:07:08.665Z,29.13
2022-08-11T11:08:07.749Z,29.43
2022-08-11T11:09:07.654Z,29.71
2022-08-11T11:10:07.665Z,29.21
2022-08-11T11:11:07.645Z,29.10
2022-08-11T11:12:07.616Z,28.41
2022-08-11T11:13:07.660Z,29.30
2022-08-11T11:14:07.628Z,29.10
2022-08-11T11:15:08.417Z,28.92
2022-08-11T11:16:08.576Z,29.69
2022-08-11T11:17:07.548Z,28.80
2022-08-11T11:18:07.536Z,29.20
2022-08-11T11:19:07.516Z,28.42
2022-08-11T11:20:07.529Z,29.21
2022-08-11T11:21:07.531Z,29.50
2022-08-11T11:22:07.499Z,29.09
2022-08-11T11:23:07.638Z,29.38
2022-08-11T11:24:07.436Z,28.70
2022-08-11T11:25:07.510Z,29.10
2022-08-11T11:26:07.489Z,28.11
2022-08-11T11:27:07.386Z,28.61
2022-08-11T11:28:07.391Z,29.00
2022-08-11T11:29:07.404Z,28.11
2022-08-11T11:30:07.398Z,28.61
2022-08-11T11:31:07.349Z,28.33
2022-08-11T11:32:07.451Z,28.92
2022-08-11T11:33:07.338Z,28.62
2022-08-11T11:34:12.579Z,29.20
2022-08-11T11:35:08.289Z,29.00
2022-08-11T11:36:07.350Z,29.68
2022-08-11T11:37:07.268Z,28.30
2022-08-11T11:38:10.488Z,28.31
2022-08-11T11:39:08.346Z,28.61
2022-08-11T11:40:07.238Z,28.80
2022-08-11T11:41:07.230Z,28.70
2022-08-11T11:42:07.201Z,28.91
2022-08-11T11:43:07.197Z,28.21
2022-08-11T11:44:07.178Z,28.02
2022-08-11T11:45:07.170Z,28.51
2022-08-11T11:46:07.139Z,28.59
2022-08-11T11:47:07.163Z,28.20
2022-08-11T11:48:07.130Z,28.19
2022-08-11T11:49:07.178Z,28.37
2022-08-11T11:50:08.171Z,28.56
2022-08-11T11:51:07.081Z,28.97
2022-08-11T11:52:07.093Z,28.89
2022-08-11T11:53:07.082Z,28.91
2022-08-11T11:54:07.031Z,29.00
2022-08-11T11:55:07.203Z,28.91
2022-08-11T11:56:07.011Z,28.80
2022-08-11T11:57:07.000Z,29.00
2022-08-11T11:58:07.001Z,29.20
2022-08-11T11:59:06.981Z,28.70
2022-08-11T12:00:06.960Z,28.59
2022-08-11T12:01:06.941Z,28.99
2022-08-11T12:02:11.648Z,28.40
2022-08-11T12:03:08.034Z,28.40
2022-08-11T12:04:06.911Z,28.19
2022-08-11T12:05:06.902Z,28.38
2022-08-11T12:06:06.896Z,28.86
2022-08-11T12:07:06.855Z,28.08
2022-08-11T12:08:13.207Z,28.37
2022-08-11T12:09:07.845Z,28.38
2022-08-11T12:10:06.823Z,28.48
2022-08-11T12:11:06.850Z,28.58
2022-08-11T12:12:06.792Z,28.48
2022-08-11T12:13:06.831Z,28.38
2022-08-11T12:14:10.811Z,27.97
2022-08-11T12:15:06.755Z,28.88
2022-08-11T12:16:34.668Z,29.17
2022-08-11T12:17:07.793Z,28.38
2022-08-11T12:18:06.787Z,27.99
2022-08-11T12:19:06.691Z,27.99
2022-08-11T12:20:06.759Z,28.08
2022-08-11T12:21:07.758Z,28.08
2022-08-11T12:22:06.670Z,27.69
2022-08-11T12:23:06.686Z,27.79
2022-08-11T12:24:06.635Z,28.37
2022-08-11T12:25:06.646Z,27.97
2022-08-11T12:27:15.951Z,27.39
2022-08-11T12:28:07.636Z,27.59
2022-08-11T12:29:06.568Z,27.59
2022-08-11T12:30:06.553Z,28.09
2022-08-11T12:31:06.546Z,27.97
2022-08-11T12:32:06.575Z,27.58
2022-08-11T12:33:06.540Z,27.48
2022-08-11T12:34:06.579Z,27.19
2022-08-11T12:35:06.490Z,27.48
2022-08-11T12:36:06.525Z,27.58
2022-08-11T12:37:06.588Z,27.97
2022-08-11T12:38:10.803Z,27.30
2022-08-11T12:39:23.162Z,27.28
2022-08-11T12:40:16.498Z,27.68
2022-08-11T12:41:16.359Z,27.89
2022-08-11T12:42:07.418Z,27.99
2022-08-11T12:43:20.832Z,27.79
2022-08-11T12:44:07.358Z,26.81
2022-08-11T12:45:06.422Z,27.00
2022-08-11T12:46:07.370Z,27.30
2022-08-11T12:47:06.432Z,27.20
2022-08-11T12:48:40.216Z,27.40
2022-08-11T12:49:07.282Z,27.50
2022-08-11T12:50:06.290Z,27.28
2022-08-11T12:51:07.276Z,27.40
2022-08-11T12:52:14.855Z,27.68
2022-08-11T12:53:07.290Z,27.97
2022-08-11T12:54:06.411Z,27.28